AirNav   Everest Fuels
 
 1070 users online  

03IL Wix Airport
Monee, Illinois, USA

GOING TO MONEE?


FAA INFORMATION EFFECTIVE 10 SEPTEMBER 2020

Location

FAA Identifier: 03IL
Lat/Long: 41-24-08.1190N 087-49-00.1680W
41-24.135317N 087-49.002800W
41.4022553,-87.8167133
(estimated)
Elevation: 750 ft. / 229 m (estimated)
Variation: 01W (1985)
From city: 6 miles SW of MONEE, IL
Time zone: UTC -5 (UTC -6 during Standard Time)
Zip code: 60449

Airport Operations

Airport use: Private use, PERSONAL USE.
Activation date: 04/1990
Control tower: no
ARTCC: CHICAGO CENTER
FSS: KANKAKEE FLIGHT SERVICE STATION
Attendance: UNATNDD
Wind indicator: yes
Segmented circle: yes

Airport Communications

WX AWOS-AV at C56 (6 nm E): 119.125 (708-534-5256)
WX AWOS-3 at IGQ (15 nm NE): 119.275 (708-895-9526)
WX AWOS-3 at JOT (18 nm NW): 119.975 (815-730-9560)
WX AWOS-3 at LOT (18 nm NW): 118.525 (815-588-4802)
WX AWOS-3 at IKK (20 nm S): 128.475 (815-939-4044)

Nearby radio navigation aids

VOR radial/distance  VOR name  Freq  Var
EONr350/8.0PEOTONE VORTAC113.2002E
CGTr238/12.8CHICAGO HEIGHTS VORTAC114.2002E
JOTr109/24.2JOLIET VOR/DME112.3002E
DPAr139/37.8DUPAGE VOR/DME108.4002E

Airport Services

Runway Information

Runway 18/36

Dimensions: 2600 x 105 ft. / 792 x 32 m
Surface: turf
RUNWAY 18  RUNWAY 36
Traffic pattern: rightleft
Obstructions: none40 ft. trees, 600 ft. from runway

Airport Ownership and Management from official FAA records

Ownership: Privately-owned
Owner: H. WIX, M.D.
1018 DEER TRAIL
BOURBONNAIS, IL 60914
Phone 815-216-0186
Manager: H. WIX, M.D.
1018 DEER TRAIL
BOURBONNAIS, IL 60914
Phone 815-216-0186

Airport Operational Statistics

Aircraft based on the field: 1
Single engine airplanes: 1
    

Additional Remarks

FOR CD CTC CHICAGO ARTCC AT 630-906-8921.

Instrument Procedures

There are no published instrument procedures at 03IL.

Some nearby airports with instrument procedures:

C56 - Bult Field Airport (6 nm E)
KIGQ - Lansing Municipal Airport (15 nm NE)
KLOT - Lewis University Airport (18 nm NW)
KIKK - Greater Kankakee Airport (20 nm S)
05C - Griffith-Merrillville Airport (20 nm E)
 
Loc | Ops | Rwys | IFR | FBO | Links
Com | Nav | Svcs | Stats | Notes
Area around 03IL (Wix Airport)
 
Road maps at: MapQuest Bing Google
 
Aerial photo
No photo
 
Sectional chart

 
Airport distance calculator
Flying to Wix Airport? Find the distance to fly.

From to 03IL

Sunrise and sunset
Times for 18-Sep-2020
 Local
(UTC-5)
 Zulu
(UTC)
Morning civil twilight06:0911:09
Sunrise06:3711:37
Sunset18:5323:53
Evening civil twilight19:2100:21

Current date and time
Zulu (UTC)  19-Sep-2020 03:21:32
Local (UTC-5)  18-Sep-2020 22:21:32
 
METAR
KIGQ 
15nm NE 
190255Z AUTO 00000KT 10SM CLR 10/04 A3037 RMK AO2 T01000035
KJOT 
17nm NW 
190255Z AUTO 03005KT 10SM CLR 10/04 A3039 RMK AO2 T01030043
KLOT 
18nm NW 
190255Z AUTO 05004KT 10SM CLR 08/04 A3038 RMK AO2 T00820040
KIKK 
20nm S 
190256Z AUTO 02006KT 10SM CLR 09/03 A3037 RMK AO2
KGYY 
22nm NE 
190245Z 03006KT 10SM SCT043 12/05 A3037
KMDW 
23nm N 
190253Z 32005KT 10SM FEW040 11/03 A3037 RMK AO2 SLP285 T01060028 53008
KC09 
27nm W 
190302Z AUTO 00000KT 10SM CLR 07/05 A3037 RMK AO2
TAF
KGYY 
22nm NE 
182048Z 1821/1918 03014KT P6SM SCT050 FM190100 VRB04KT P6SM FEW035 FM191400 11007KT P6SM FEW040
KMDW 
23nm N 
182048Z 1821/1924 04014G20KT P6SM FEW045 FM190100 35004KT P6SM FEW035 FM191300 13006KT P6SM FEW040
NOTAMs
Click for the latest NOTAMs
NOTAMs are issued by the DoD/FAA and will open in a separate window not controlled by AirNav.

 

 
 

Would you like to see your business listed on this page?

 If your business provides an interesting product or service to pilots, flight crews, aircraft, or users of the Wix Airport, you should consider listing it here.  To start the listing process, click on the button below
 
Add a business
 

Other Pages about Wix Airport

Update a link
 
Copyright © AirNav, LLC. All rights reserved. Privacy Policy  Contact